sensor_id;sensor_type;location;lat;lon;timestamp;pressure;altitude;pressure_sealevel;temperature;humidity
62544;BME280;48597;49.030;1.822;2024-01-07T00:00:17;100967.47;;;20.06;45.16
62544;BME280;48597;49.030;1.822;2024-01-07T00:02:42;100967.47;;;20.06;44.78
62544;BME280;48597;49.030;1.822;2024-01-07T00:05:08;100963.38;;;20.07;44.80
62544;BME280;48597;49.030;1.822;2024-01-07T00:07:33;100973.19;;;20.06;44.75
62544;BME280;48597;49.030;1.822;2024-01-07T00:09:58;100980.53;;;20.07;44.51
62544;BME280;48597;49.030;1.822;2024-01-07T00:12:24;100974.81;;;20.07;44.46
62544;BME280;48597;49.030;1.822;2024-01-07T00:14:50;100986.97;;;20.11;44.37
62544;BME280;48597;49.030;1.822;2024-01-07T00:17:15;100975.53;;;20.11;44.13
62544;BME280;48597;49.030;1.822;2024-01-07T00:19:41;100981.25;;;20.11;44.17
62544;BME280;48597;49.030;1.822;2024-01-07T00:22:07;100982.88;;;20.12;44.01
62544;BME280;48597;49.030;1.822;2024-01-07T00:24:32;100984.44;;;20.13;43.82
62544;BME280;48597;49.030;1.822;2024-01-07T00:26:57;100984.44;;;20.13;44.00
62544;BME280;48597;49.030;1.822;2024-01-07T00:29:23;100980.31;;;20.14;43.63
62544;BME280;48597;49.030;1.822;2024-01-07T00:31:48;100990.16;;;20.13;43.83
62544;BME280;48597;49.030;1.822;2024-01-07T00:34:13;100981.94;;;20.15;43.66
62544;BME280;48597;49.030;1.822;2024-01-07T00:36:39;100991.78;;;20.14;43.49
62544;BME280;48597;49.030;1.822;2024-01-07T00:39:05;100988.91;;;20.14;43.43
62544;BME280;48597;49.030;1.822;2024-01-07T00:41:30;100990.09;;;20.17;43.51
62544;BME280;48597;49.030;1.822;2024-01-07T00:43:56;100990.88;;;20.17;43.33
62544;BME280;48597;49.030;1.822;2024-01-07T00:46:21;100989.28;;;20.16;43.18
62544;BME280;48597;49.030;1.822;2024-01-07T00:48:47;100987.56;;;20.19;43.34
62544;BME280;48597;49.030;1.822;2024-01-07T00:51:12;100989.63;;;20.18;43.09
62544;BME280;48597;49.030;1.822;2024-01-07T00:53:37;100992.03;;;20.20;43.33
62544;BME280;48597;49.030;1.822;2024-01-07T00:56:03;100997.31;;;20.21;43.08
62544;BME280;48597;49.030;1.822;2024-01-07T00:58:28;100997.69;;;20.23;43.03
62544;BME280;48597;49.030;1.822;2024-01-07T01:00:53;100988.16;;;20.26;42.91
62544;BME280;48597;49.030;1.822;2024-01-07T01:03:19;100993.09;;;20.26;43.03
62544;BME280;48597;49.030;1.822;2024-01-07T01:05:45;100992.19;;;20.29;42.88
62544;BME280;48597;49.030;1.822;2024-01-07T01:08:10;100986.13;;;20.27;42.77
62544;BME280;48597;49.030;1.822;2024-01-07T01:10:36;100991.84;;;20.27;42.75
62544;BME280;48597;49.030;1.822;2024-01-07T01:13:01;100993.00;;;20.29;42.75
62544;BME280;48597;49.030;1.822;2024-01-07T01:15:26;100997.91;;;20.29;42.68
62544;BME280;48597;49.030;1.822;2024-01-07T01:17:52;101002.84;;;20.28;42.75
62544;BME280;48597;49.030;1.822;2024-01-07T01:20:17;100998.72;;;20.29;42.42
62544;BME280;48597;49.030;1.822;2024-01-07T01:22:43;101007.31;;;20.29;42.65
62544;BME280;48597;49.030;1.822;2024-01-07T01:25:08;101010.53;;;20.31;42.57
62544;BME280;48597;49.030;1.822;2024-01-07T01:27:33;101013.03;;;20.29;42.56
62544;BME280;48597;49.030;1.822;2024-01-07T01:29:59;101013.03;;;20.29;42.47
62544;BME280;48597;49.030;1.822;2024-01-07T01:32:24;101021.19;;;20.31;42.56
62544;BME280;48597;49.030;1.822;2024-01-07T01:34:49;101025.66;;;20.32;42.37
62544;BME280;48597;49.030;1.822;2024-01-07T01:37:15;101031.38;;;20.32;42.52
62544;BME280;48597;49.030;1.822;2024-01-07T01:39:41;101025.66;;;20.32;42.23
62544;BME280;48597;49.030;1.822;2024-01-07T01:42:06;101028.97;;;20.30;42.21
62544;BME280;48597;49.030;1.822;2024-01-07T01:44:31;101030.56;;;20.31;42.23
62544;BME280;48597;49.030;1.822;2024-01-07T01:46:57;101031.38;;;20.32;42.25
62544;BME280;48597;49.030;1.822;2024-01-07T01:49:23;101026.47;;;20.32;42.12
62544;BME280;48597;49.030;1.822;2024-01-07T01:51:49;101028.50;;;20.32;42.27
62544;BME280;48597;49.030;1.822;2024-01-07T01:54:15;101023.69;;;20.29;42.05
62544;BME280;48597;49.030;1.822;2024-01-07T01:56:42;101029.41;;;20.29;42.20
62544;BME280;48597;49.030;1.822;2024-01-07T01:59:08;101035.50;;;20.31;42.20
62544;BME280;48597;49.030;1.822;2024-01-07T02:01:33;101033.06;;;20.29;42.19
62544;BME280;48597;49.030;1.822;2024-01-07T02:03:59;101039.16;;;20.31;42.10
62544;BME280;48597;49.030;1.822;2024-01-07T02:06:25;101037.09;;;20.32;42.05
62544;BME280;48597;49.030;1.822;2024-01-07T02:08:51;101034.69;;;20.30;41.96
62544;BME280;48597;49.030;1.822;2024-01-07T02:11:20;101030.66;;;20.28;41.91
62544;BME280;48597;49.030;1.822;2024-01-07T02:13:46;101048.63;;;20.28;41.95
62544;BME280;48597;49.030;1.822;2024-01-07T02:16:12;101044.53;;;20.29;42.05
62544;BME280;48597;49.030;1.822;2024-01-07T02:18:38;101045.34;;;20.30;42.04
62544;BME280;48597;49.030;1.822;2024-01-07T02:21:06;101057.22;;;20.28;41.87
62544;BME280;48597;49.030;1.822;2024-01-07T02:23:32;101047.03;;;20.27;41.82
62544;BME280;48597;49.030;1.822;2024-01-07T02:25:57;101049.88;;;20.27;41.99
62544;BME280;48597;49.030;1.822;2024-01-07T02:28:22;101049.88;;;20.27;41.83
62544;BME280;48597;49.030;1.822;2024-01-07T02:30:48;101047.84;;;20.28;41.95
62544;BME280;48597;49.030;1.822;2024-01-07T02:33:13;101044.53;;;20.29;41.89
62544;BME280;48597;49.030;1.822;2024-01-07T02:35:38;101046.94;;;20.31;41.77
62544;BME280;48597;49.030;1.822;2024-01-07T02:38:04;101043.72;;;20.29;41.80
62544;BME280;48597;49.030;1.822;2024-01-07T02:40:29;101049.81;;;20.31;41.70
62544;BME280;48597;49.030;1.822;2024-01-07T02:42:55;101053.13;;;20.29;41.63
62544;BME280;48597;49.030;1.822;2024-01-07T02:45:22;101053.56;;;20.28;41.75
62544;BME280;48597;49.030;1.822;2024-01-07T02:47:47;101047.38;;;20.29;41.77
62544;BME280;48597;49.030;1.822;2024-01-07T02:50:13;101039.16;;;20.31;41.65
62544;BME280;48597;49.030;1.822;2024-01-07T02:52:38;101036.28;;;20.31;41.47
62544;BME280;48597;49.030;1.822;2024-01-07T02:55:04;101049.81;;;20.31;41.64
62544;BME280;48597;49.030;1.822;2024-01-07T02:57:29;101043.28;;;20.30;41.44
62544;BME280;48597;49.030;1.822;2024-01-07T02:59:55;101042.91;;;20.28;41.63
62544;BME280;48597;49.030;1.822;2024-01-07T03:02:20;101050.25;;;20.29;41.45
62544;BME280;48597;49.030;1.822;2024-01-07T03:04:45;101050.25;;;20.29;41.47
62544;BME280;48597;49.030;1.822;2024-01-07T03:07:11;101052.66;;;20.31;41.57
62544;BME280;48597;49.030;1.822;2024-01-07T03:09:36;101046.13;;;20.30;41.36
62544;BME280;48597;49.030;1.822;2024-01-07T03:12:02;101053.13;;;20.29;41.46
62544;BME280;48597;49.030;1.822;2024-01-07T03:14:27;101050.25;;;20.29;41.53
62544;BME280;48597;49.030;1.822;2024-01-07T03:16:52;101047.84;;;20.28;41.36
62544;BME280;48597;49.030;1.822;2024-01-07T03:19:18;101044.16;;;20.27;41.26
62544;BME280;48597;49.030;1.822;2024-01-07T03:21:43;101049.88;;;20.27;41.31
62544;BME280;48597;49.030;1.822;2024-01-07T03:24:09;101045.78;;;20.28;41.47
62544;BME280;48597;49.030;1.822;2024-01-07T03:26:35;101055.63;;;20.27;41.31
62544;BME280;48597;49.030;1.822;2024-01-07T03:29:00;101048.63;;;20.28;41.39
62544;BME280;48597;49.030;1.822;2024-01-07T03:31:27;101060.91;;;20.29;41.27
62544;BME280;48597;49.030;1.822;2024-01-07T03:33:52;101059.66;;;20.30;41.30
62544;BME280;48597;49.030;1.822;2024-01-07T03:36:18;101056.78;;;20.30;41.21
62544;BME280;48597;49.030;1.822;2024-01-07T03:38:43;101055.16;;;20.29;41.27
62544;BME280;48597;49.030;1.822;2024-01-07T03:41:08;101061.69;;;20.29;41.19
62544;BME280;48597;49.030;1.822;2024-01-07T03:43:34;101063.75;;;20.29;41.29
62544;BME280;48597;49.030;1.822;2024-01-07T03:45:59;101063.69;;;20.32;41.18
62544;BME280;48597;49.030;1.822;2024-01-07T03:48:26;101060.91;;;20.29;41.32
62544;BME280;48597;49.030;1.822;2024-01-07T03:50:51;101059.19;;;20.31;42.64
62544;BME280;48597;49.030;1.822;2024-01-07T03:53:17;101059.66;;;20.30;42.75
62544;BME280;48597;49.030;1.822;2024-01-07T03:55:43;101070.28;;;20.29;42.69
62544;BME280;48597;49.030;1.822;2024-01-07T03:58:08;101068.31;;;20.26;42.53
62544;BME280;48597;49.030;1.822;2024-01-07T04:00:34;101063.84;;;20.25;42.41
62544;BME280;48597;49.030;1.822;2024-01-07T04:03:00;101070.84;;;20.24;42.31
62544;BME280;48597;49.030;1.822;2024-01-07T04:05:26;101079.06;;;20.22;42.34
62544;BME280;48597;49.030;1.822;2024-01-07T04:07:51;101074.25;;;20.19;42.24
62544;BME280;48597;49.030;1.822;2024-01-07T04:10:17;101071.81;;;20.18;42.21
62544;BME280;48597;49.030;1.822;2024-01-07T04:12:42;101071.03;;;20.17;41.99
62544;BME280;48597;49.030;1.822;2024-01-07T04:15:08;101076.38;;;20.15;42.20
62544;BME280;48597;49.030;1.822;2024-01-07T04:17:33;101080.94;;;20.13;42.11
62544;BME280;48597;49.030;1.822;2024-01-07T04:19:59;101072.81;;;20.11;41.95
62544;BME280;48597;49.030;1.822;2024-01-07T04:22:24;101084.28;;;20.11;42.07
62544;BME280;48597;49.030;1.822;2024-01-07T04:24:49;101076.56;;;20.08;41.93
62544;BME280;48597;49.030;1.822;2024-01-07T04:27:15;101070.84;;;20.08;41.96
62544;BME280;48597;49.030;1.822;2024-01-07T04:29:40;101073.34;;;20.06;41.93
62544;BME280;48597;49.030;1.822;2024-01-07T04:32:05;101075.84;;;20.04;41.95
62544;BME280;48597;49.030;1.822;2024-01-07T04:34:31;101078.72;;;20.04;41.87
62544;BME280;48597;49.030;1.822;2024-01-07T04:36:56;101068.53;;;20.03;41.80
62544;BME280;48597;49.030;1.822;2024-01-07T04:39:21;101082.03;;;20.03;41.75
62544;BME280;48597;49.030;1.822;2024-01-07T04:41:47;101079.59;;;20.01;41.79
62544;BME280;48597;49.030;1.822;2024-01-07T04:44:12;101073.88;;;20.01;41.77
62544;BME280;48597;49.030;1.822;2024-01-07T04:46:38;101073.88;;;20.01;41.75
62544;BME280;48597;49.030;1.822;2024-01-07T04:49:04;101073.06;;;20.01;41.58
62544;BME280;48597;49.030;1.822;2024-01-07T04:51:31;101088.56;;;20.03;41.62
62544;BME280;48597;49.030;1.822;2024-01-07T04:53:56;101078.34;;;20.02;41.60
62544;BME280;48597;49.030;1.822;2024-01-07T04:56:21;101074.69;;;20.02;41.68
62544;BME280;48597;49.030;1.822;2024-01-07T04:58:47;101077.47;;;20.05;41.50
62544;BME280;48597;49.030;1.822;2024-01-07T05:01:12;101081.94;;;20.06;41.48
62544;BME280;48597;49.030;1.822;2024-01-07T05:03:37;101077.38;;;20.09;41.36
62544;BME280;48597;49.030;1.822;2024-01-07T05:06:03;101079.81;;;20.10;41.26
62544;BME280;48597;49.030;1.822;2024-01-07T05:08:29;101081.06;;;20.09;41.45
62544;BME280;48597;49.030;1.822;2024-01-07T05:10:55;101091.59;;;20.12;41.25
62544;BME280;48597;49.030;1.822;2024-01-07T05:13:21;101091.59;;;20.12;41.47
62544;BME280;48597;49.030;1.822;2024-01-07T05:15:46;101089.09;;;20.14;41.14
62544;BME280;48597;49.030;1.822;2024-01-07T05:18:20;101086.66;;;20.13;41.31
62544;BME280;48597;49.030;1.822;2024-01-07T05:20:45;101089.09;;;20.14;41.21
62544;BME280;48597;49.030;1.822;2024-01-07T05:23:10;101089.09;;;20.14;41.30
62544;BME280;48597;49.030;1.822;2024-01-07T05:25:36;101089.09;;;20.14;41.06
62544;BME280;48597;49.030;1.822;2024-01-07T05:28:01;101094.34;;;20.16;41.21
62544;BME280;48597;49.030;1.822;2024-01-07T05:30:26;101100.88;;;20.16;41.21
62544;BME280;48597;49.030;1.822;2024-01-07T05:32:52;101100.09;;;20.16;41.22
62544;BME280;48597;49.030;1.822;2024-01-07T05:35:18;101098.84;;;20.17;40.86
62544;BME280;48597;49.030;1.822;2024-01-07T05:37:43;101108.59;;;20.19;41.11
62544;BME280;48597;49.030;1.822;2024-01-07T05:40:09;101108.59;;;20.19;41.19
62544;BME280;48597;49.030;1.822;2024-01-07T05:42:35;101107.34;;;20.20;41.25
62544;BME280;48597;49.030;1.822;2024-01-07T05:45:00;101108.06;;;20.24;41.10
62544;BME280;48597;49.030;1.822;2024-01-07T05:47:25;101111.72;;;20.25;41.06
62544;BME280;48597;49.030;1.822;2024-01-07T05:49:51;101112.06;;;20.27;41.06
62544;BME280;48597;49.030;1.822;2024-01-07T05:52:17;101115.72;;;20.27;41.02
62544;BME280;48597;49.030;1.822;2024-01-07T05:54:42;101123.88;;;20.29;40.97
62544;BME280;48597;49.030;1.822;2024-01-07T05:57:07;101120.22;;;20.28;40.98
62544;BME280;48597;49.030;1.822;2024-01-07T05:59:33;101127.91;;;20.31;40.94
62544;BME280;48597;49.030;1.822;2024-01-07T06:01:59;101131.22;;;20.30;40.89
62544;BME280;48597;49.030;1.822;2024-01-07T06:04:24;101125.94;;;20.28;41.02
62544;BME280;48597;49.030;1.822;2024-01-07T06:06:49;101136.84;;;20.33;41.04
62544;BME280;48597;49.030;1.822;2024-01-07T06:09:15;101134.38;;;20.36;40.76
62544;BME280;48597;49.030;1.822;2024-01-07T06:11:40;101138.47;;;20.34;40.78
62544;BME280;48597;49.030;1.822;2024-01-07T06:14:05;101143.38;;;20.34;40.87
62544;BME280;48597;49.030;1.822;2024-01-07T06:16:31;101141.34;;;20.34;40.87
62544;BME280;48597;49.030;1.822;2024-01-07T06:18:56;101143.84;;;20.32;40.91
62544;BME280;48597;49.030;1.822;2024-01-07T06:21:22;101139.72;;;20.33;40.87
62544;BME280;48597;49.030;1.822;2024-01-07T06:23:47;101148.75;;;20.32;40.80
62544;BME280;48597;49.030;1.822;2024-01-07T06:26:13;101150.44;;;20.29;41.04
62544;BME280;48597;49.030;1.822;2024-01-07T06:28:38;101151.25;;;20.30;40.92
62544;BME280;48597;49.030;1.822;2024-01-07T06:31:03;101160.66;;;20.30;40.88
62544;BME280;48597;49.030;1.822;2024-01-07T06:33:29;101157.78;;;20.30;40.84
62544;BME280;48597;49.030;1.822;2024-01-07T06:35:54;101160.19;;;20.32;40.79
62544;BME280;48597;49.030;1.822;2024-01-07T06:38:20;101161.91;;;20.29;40.70
62544;BME280;48597;49.030;1.822;2024-01-07T06:40:45;101165.13;;;20.31;40.76
62544;BME280;48597;49.030;1.822;2024-01-07T06:43:11;101173.72;;;20.31;40.89
62544;BME280;48597;49.030;1.822;2024-01-07T06:45:36;101166.00;;;20.28;40.83
62544;BME280;48597;49.030;1.822;2024-01-07T06:48:01;101168.06;;;20.28;40.80
62544;BME280;48597;49.030;1.822;2024-01-07T06:50:27;101172.97;;;20.27;40.89
62544;BME280;48597;49.030;1.822;2024-01-07T06:52:52;101178.25;;;20.29;40.81
62544;BME280;48597;49.030;1.822;2024-01-07T06:55:17;101174.16;;;20.30;40.65
62544;BME280;48597;49.030;1.822;2024-01-07T06:57:43;101177.91;;;20.27;40.91
62544;BME280;48597;49.030;1.822;2024-01-07T07:00:08;101178.72;;;20.27;40.81
62544;BME280;48597;49.030;1.822;2024-01-07T07:02:34;101182.81;;;20.26;40.90
62544;BME280;48597;49.030;1.822;2024-01-07T07:04:59;101182.00;;;20.26;40.74
62544;BME280;48597;49.030;1.822;2024-01-07T07:07:25;101191.06;;;20.24;40.63
62544;BME280;48597;49.030;1.822;2024-01-07T07:09:50;101187.41;;;20.24;40.77
62544;BME280;48597;49.030;1.822;2024-01-07T07:12:17;101180.88;;;20.23;40.75
62544;BME280;48597;49.030;1.822;2024-01-07T07:14:43;101183.28;;;20.25;40.82
62544;BME280;48597;49.030;1.822;2024-01-07T07:17:08;101179.25;;;20.22;40.96
62544;BME280;48597;49.030;1.822;2024-01-07T07:19:34;101181.75;;;20.20;40.79
62544;BME280;48597;49.030;1.822;2024-01-07T07:21:59;101177.28;;;20.19;40.79
62544;BME280;48597;49.030;1.822;2024-01-07T07:24:24;101180.94;;;20.20;40.68
62544;BME280;48597;49.030;1.822;2024-01-07T07:26:50;101186.31;;;20.18;40.77
62544;BME280;48597;49.030;1.822;2024-01-07T07:29:15;101192.03;;;20.18;40.78
62544;BME280;48597;49.030;1.822;2024-01-07T07:31:40;101199.44;;;20.15;40.79
62544;BME280;48597;49.030;1.822;2024-01-07T07:34:08;101200.25;;;20.16;40.75
62544;BME280;48597;49.030;1.822;2024-01-07T07:36:34;101202.31;;;20.15;40.72
62544;BME280;48597;49.030;1.822;2024-01-07T07:38:59;101198.19;;;20.16;40.67
62544;BME280;48597;49.030;1.822;2024-01-07T07:41:24;101202.69;;;20.17;40.67
62544;BME280;48597;49.030;1.822;2024-01-07T07:43:50;101213.25;;;20.20;40.60
62544;BME280;48597;49.030;1.822;2024-01-07T07:46:15;101204.66;;;20.20;40.51
62544;BME280;48597;49.030;1.822;2024-01-07T07:48:41;101211.19;;;20.21;40.66
62544;BME280;48597;49.030;1.822;2024-01-07T07:51:07;101209.56;;;20.20;40.64
62544;BME280;48597;49.030;1.822;2024-01-07T07:53:32;101218.53;;;20.22;40.57
62544;BME280;48597;49.030;1.822;2024-01-07T07:55:57;101212.81;;;20.22;40.50
62544;BME280;48597;49.030;1.822;2024-01-07T07:58:24;101219.78;;;20.21;40.62
62544;BME280;48597;49.030;1.822;2024-01-07T08:00:49;101219.34;;;20.22;40.57
62544;BME280;48597;49.030;1.822;2024-01-07T08:03:15;101218.88;;;20.24;40.65
62544;BME280;48597;49.030;1.822;2024-01-07T08:05:40;101219.69;;;20.24;40.58
62544;BME280;48597;49.030;1.822;2024-01-07T08:08:07;101223.38;;;20.25;40.55
62544;BME280;48597;49.030;1.822;2024-01-07T08:10:32;101215.91;;;20.27;40.50
62544;BME280;48597;49.030;1.822;2024-01-07T08:12:57;101222.44;;;20.28;40.61
62544;BME280;48597;49.030;1.822;2024-01-07T08:15:23;101219.59;;;20.28;40.66
62544;BME280;48597;49.030;1.822;2024-01-07T08:17:48;101226.50;;;20.30;40.56
62544;BME280;48597;49.030;1.822;2024-01-07T08:20:15;101217.09;;;20.30;40.38
62544;BME280;48597;49.030;1.822;2024-01-07T08:22:40;101219.59;;;20.28;40.52
62544;BME280;48597;49.030;1.822;2024-01-07T08:25:06;101219.22;;;20.26;40.49
62544;BME280;48597;49.030;1.822;2024-01-07T08:27:31;101223.00;;;20.23;40.52
62544;BME280;48597;49.030;1.822;2024-01-07T08:29:57;101230.41;;;20.20;40.53
62544;BME280;48597;49.030;1.822;2024-01-07T08:32:23;101227.56;;;20.20;40.68
62544;BME280;48597;49.030;1.822;2024-01-07T08:34:49;101232.47;;;20.20;40.66
62544;BME280;48597;49.030;1.822;2024-01-07T08:37:14;101234.16;;;20.17;40.63
62544;BME280;48597;49.030;1.822;2024-01-07T08:39:39;101235.78;;;20.18;41.02
62544;BME280;48597;49.030;1.822;2024-01-07T08:42:05;101228.00;;;20.19;41.37
62544;BME280;48597;49.030;1.822;2024-01-07T08:44:30;101227.56;;;20.20;41.29
62544;BME280;48597;49.030;1.822;2024-01-07T08:46:56;101241.06;;;20.20;41.21
62544;BME280;48597;49.030;1.822;2024-01-07T08:49:21;101240.75;;;20.14;41.64
62544;BME280;48597;49.030;1.822;2024-01-07T08:51:46;101235.94;;;20.11;41.69
62544;BME280;48597;49.030;1.822;2024-01-07T08:54:12;101238.81;;;20.11;41.82
62544;BME280;48597;49.030;1.822;2024-01-07T08:56:37;101234.69;;;20.12;41.90
62544;BME280;48597;49.030;1.822;2024-01-07T08:59:04;101242.91;;;20.10;42.10
62544;BME280;48597;49.030;1.822;2024-01-07T09:01:30;101249.91;;;20.09;42.21
62544;BME280;48597;49.030;1.822;2024-01-07T09:03:55;101255.25;;;20.07;42.24
62544;BME280;48597;49.030;1.822;2024-01-07T09:06:20;101250.78;;;20.06;42.33
62544;BME280;48597;49.030;1.822;2024-01-07T09:08:46;101253.63;;;20.06;42.41
62544;BME280;48597;49.030;1.822;2024-01-07T09:11:11;101257.75;;;20.05;42.50
62544;BME280;48597;49.030;1.822;2024-01-07T09:13:38;101258.56;;;20.06;42.48
62544;BME280;48597;49.030;1.822;2024-01-07T09:16:03;101257.75;;;20.05;42.50
62544;BME280;48597;49.030;1.822;2024-01-07T09:18:29;101255.69;;;20.06;42.48
62544;BME280;48597;49.030;1.822;2024-01-07T09:20:55;101268.38;;;20.05;42.39
62544;BME280;48597;49.030;1.822;2024-01-07T09:23:21;101268.81;;;20.03;42.27
62544;BME280;48597;49.030;1.822;2024-01-07T09:25:47;101269.63;;;20.04;42.40
62544;BME280;48597;49.030;1.822;2024-01-07T09:28:12;101265.97;;;20.03;42.56
62544;BME280;48597;49.030;1.822;2024-01-07T09:30:38;101272.94;;;20.02;42.64
62544;BME280;48597;49.030;1.822;2024-01-07T09:33:06;101280.28;;;20.03;42.69
62544;BME280;48597;49.030;1.822;2024-01-07T09:35:32;101282.31;;;20.03;42.66
62544;BME280;48597;49.030;1.822;2024-01-07T09:37:57;101281.50;;;20.02;42.47
62544;BME280;48597;49.030;1.822;2024-01-07T09:40:23;101276.22;;;20.01;42.51
62544;BME280;48597;49.030;1.822;2024-01-07T09:42:48;101279.56;;;19.99;42.60
62544;BME280;48597;49.030;1.822;2024-01-07T09:45:14;101285.63;;;20.01;42.66
62544;BME280;48597;49.030;1.822;2024-01-07T09:47:41;101292.59;;;20.00;42.54
62544;BME280;48597;49.030;1.822;2024-01-07T09:50:09;101288.47;;;20.01;42.71
62544;BME280;48597;49.030;1.822;2024-01-07T09:52:36;101297.50;;;19.99;42.59
62544;BME280;48597;49.030;1.822;2024-01-07T09:55:03;101306.09;;;19.99;42.50
62544;BME280;48597;49.030;1.822;2024-01-07T09:57:29;101291.00;;;19.99;42.62
62544;BME280;48597;49.030;1.822;2024-01-07T09:59:54;101290.19;;;19.98;42.57
62544;BME280;48597;49.030;1.822;2024-01-07T10:02:20;101301.66;;;19.98;42.69
62544;BME280;48597;49.030;1.822;2024-01-07T10:04:48;101304.94;;;19.97;42.68
62544;BME280;48597;49.030;1.822;2024-01-07T10:07:14;101306.19;;;19.96;42.61
62544;BME280;48597;49.030;1.822;2024-01-07T10:09:40;101299.22;;;19.97;42.57
62544;BME280;48597;49.030;1.822;2024-01-07T10:12:07;101308.59;;;19.97;42.50
62544;BME280;48597;49.030;1.822;2024-01-07T10:14:33;101299.22;;;19.97;42.51
62544;BME280;48597;49.030;1.822;2024-01-07T10:16:59;101302.06;;;19.97;42.56
62544;BME280;48597;49.030;1.822;2024-01-07T10:19:25;101300.47;;;19.96;42.62
62544;BME280;48597;49.030;1.822;2024-01-07T10:24:26;101295.19;;;19.94;42.66
62544;BME280;48597;49.030;1.822;2024-01-07T10:26:51;101300.47;;;19.96;42.62
62544;BME280;48597;49.030;1.822;2024-01-07T10:29:17;101301.72;;;19.95;42.50
62544;BME280;48597;49.030;1.822;2024-01-07T10:31:43;101293.56;;;19.93;42.57
62544;BME280;48597;49.030;1.822;2024-01-07T10:34:13;101300.09;;;19.94;42.47
62544;BME280;48597;49.030;1.822;2024-01-07T10:36:39;101299.28;;;19.93;42.44
62544;BME280;48597;49.030;1.822;2024-01-07T10:39:05;101294.00;;;19.92;42.64
62544;BME280;48597;49.030;1.822;2024-01-07T10:41:31;101294.00;;;19.92;42.50
62544;BME280;48597;49.030;1.822;2024-01-07T10:43:57;101294.00;;;19.92;42.65
62544;BME280;48597;49.030;1.822;2024-01-07T10:46:23;101294.44;;;19.90;42.51
62544;BME280;48597;49.030;1.822;2024-01-07T10:48:59;101298.09;;;19.91;42.47
62544;BME280;48597;49.030;1.822;2024-01-07T10:51:29;101298.91;;;19.91;42.57
62544;BME280;48597;49.030;1.822;2024-01-07T10:53:59;101303.81;;;19.91;42.47
62544;BME280;48597;49.030;1.822;2024-01-07T10:56:38;101293.63;;;19.90;42.45
62544;BME280;48597;49.030;1.822;2024-01-07T10:59:05;101300.59;;;19.89;42.64
62544;BME280;48597;49.030;1.822;2024-01-07T11:01:30;101298.53;;;19.89;42.54
62544;BME280;48597;49.030;1.822;2024-01-07T11:04:50;101298.97;;;19.88;42.52
62544;BME280;48597;49.030;1.822;2024-01-07T11:10:11;101297.47;;;19.83;42.64
62544;BME280;48597;49.030;1.822;2024-01-07T11:12:38;101302.00;;;19.81;42.61
62544;BME280;48597;49.030;1.822;2024-01-07T11:15:04;101300.75;;;19.82;42.57
62544;BME280;48597;49.030;1.822;2024-01-07T11:20:02;101305.69;;;19.81;42.71
62544;BME280;48597;49.030;1.822;2024-01-07T11:22:28;101304.44;;;19.82;42.70
62544;BME280;48597;49.030;1.822;2024-01-07T11:24:57;101298.72;;;19.82;42.61
62544;BME280;48597;49.030;1.822;2024-01-07T11:27:23;101306.47;;;19.82;42.62
62544;BME280;48597;49.030;1.822;2024-01-07T11:29:53;101303.63;;;19.82;42.72
62544;BME280;48597;49.030;1.822;2024-01-07T11:32:22;101304.44;;;19.82;42.75
62544;BME280;48597;49.030;1.822;2024-01-07T11:34:47;101310.59;;;19.81;42.66
62544;BME280;48597;49.030;1.822;2024-01-07T11:37:16;101302.81;;;19.81;42.87
62544;BME280;48597;49.030;1.822;2024-01-07T11:39:42;101298.34;;;19.80;42.87
62544;BME280;48597;49.030;1.822;2024-01-07T11:42:09;101300.38;;;19.80;42.76
62544;BME280;48597;49.030;1.822;2024-01-07T11:44:35;101297.53;;;19.80;42.77
62544;BME280;48597;49.030;1.822;2024-01-07T11:47:04;101296.72;;;19.79;42.58
62544;BME280;48597;49.030;1.822;2024-01-07T11:49:32;101304.94;;;19.77;42.61
62544;BME280;48597;49.030;1.822;2024-01-07T11:51:57;101302.88;;;19.78;42.47
62544;BME280;48597;49.030;1.822;2024-01-07T11:54:22;101310.66;;;19.77;42.51
62544;BME280;48597;49.030;1.822;2024-01-07T11:56:48;101306.97;;;19.77;42.42
62544;BME280;48597;49.030;1.822;2024-01-07T11:59:13;101309.84;;;19.77;42.49
62544;BME280;48597;49.030;1.822;2024-01-07T12:01:39;101303.31;;;19.76;42.61
62544;BME280;48597;49.030;1.822;2024-01-07T12:04:04;101308.59;;;19.78;42.53
62544;BME280;48597;49.030;1.822;2024-01-07T12:06:29;101305.38;;;19.76;42.66
62544;BME280;48597;49.030;1.822;2024-01-07T12:08:55;101303.31;;;19.76;42.71
62544;BME280;48597;49.030;1.822;2024-01-07T12:11:20;101299.66;;;19.76;42.82
62544;BME280;48597;49.030;1.822;2024-01-07T12:13:46;101294.72;;;19.76;42.86
62544;BME280;48597;49.030;1.822;2024-01-07T12:16:12;101298.84;;;19.75;42.75
62544;BME280;48597;49.030;1.822;2024-01-07T12:18:38;101294.38;;;19.74;42.86
62544;BME280;48597;49.030;1.822;2024-01-07T12:21:04;101295.97;;;19.75;43.09
62544;BME280;48597;49.030;1.822;2024-01-07T12:23:34;101295.97;;;19.75;43.18
62544;BME280;48597;49.030;1.822;2024-01-07T12:26:11;101295.97;;;19.75;43.13
62544;BME280;48597;49.030;1.822;2024-01-07T12:28:39;101301.69;;;19.75;43.26
62544;BME280;48597;49.030;1.822;2024-01-07T12:31:05;101303.31;;;19.76;43.36
62544;BME280;48597;49.030;1.822;2024-01-07T12:33:31;101300.44;;;19.76;43.34
62544;BME280;48597;49.030;1.822;2024-01-07T12:35:57;101298.41;;;19.77;43.34
62544;BME280;48597;49.030;1.822;2024-01-07T12:38:26;101298.41;;;19.77;43.36
62544;BME280;48597;49.030;1.822;2024-01-07T12:40:52;101302.50;;;19.76;43.45
62544;BME280;48597;49.030;1.822;2024-01-07T12:43:18;101301.69;;;19.75;43.52
62544;BME280;48597;49.030;1.822;2024-01-07T12:45:44;101296.78;;;19.76;43.35
62544;BME280;48597;49.030;1.822;2024-01-07T12:48:09;101298.03;;;19.75;43.58
62544;BME280;48597;49.030;1.822;2024-01-07T12:50:34;101303.75;;;19.75;43.47